createdAt,value
2019-04-01T00:01:22.869Z,5.37
2019-04-01T00:03:52.472Z,5.21
2019-04-01T00:06:21.954Z,5.32
2019-04-01T00:08:51.485Z,5.33
2019-04-01T00:11:21.050Z,5.38
2019-04-01T00:13:50.531Z,5.32
2019-04-01T00:16:20.058Z,5.43
2019-04-01T00:19:02.356Z,5.49
2019-04-01T00:21:21.843Z,5.58
2019-04-01T00:23:51.337Z,5.29
2019-04-01T00:26:20.904Z,5.32
2019-04-01T00:28:50.471Z,5.42
2019-04-01T00:31:19.937Z,5.56
2019-04-01T00:33:49.424Z,5.44
2019-04-01T00:36:18.919Z,5.44
2019-04-01T00:38:48.500Z,5.43
2019-04-01T00:41:18.174Z,5.33
2019-04-01T00:43:55.021Z,5.18
2019-04-01T00:46:24.957Z,5.22
2019-04-01T00:48:54.653Z,5.28
2019-04-01T00:51:24.359Z,5.24
2019-04-01T00:53:53.770Z,5.35
2019-04-01T00:56:23.277Z,5.17
2019-04-01T00:58:52.853Z,5.01
2019-04-01T01:01:22.497Z,5.20
2019-04-01T01:03:51.986Z,5.40
2019-04-01T01:06:21.447Z,5.40
2019-04-01T01:08:50.981Z,5.18
2019-04-01T01:11:21.422Z,5.16
2019-04-01T01:13:50.849Z,5.18
2019-04-01T01:16:20.381Z,5.19
2019-04-01T01:18:49.881Z,5.29
2019-04-01T01:21:19.305Z,5.21
2019-04-01T01:23:48.812Z,5.30
2019-04-01T01:26:18.297Z,5.21
2019-04-01T01:28:47.718Z,5.32
2019-04-01T01:31:17.289Z,5.36
2019-04-01T01:33:46.779Z,5.18
2019-04-01T01:36:16.264Z,5.25
2019-04-01T01:38:50.786Z,5.02
2019-04-01T01:41:20.207Z,5.03
2019-04-01T01:43:50.709Z,5.15
2019-04-01T01:46:20.129Z,4.94
2019-04-01T01:48:49.833Z,4.98
2019-04-01T01:51:19.321Z,4.79
2019-04-01T01:53:48.754Z,4.72
2019-04-01T01:56:18.249Z,4.91
2019-04-01T01:58:47.907Z,4.62
2019-04-01T02:01:17.341Z,4.47
2019-04-01T02:03:46.811Z,4.59
2019-04-01T02:06:16.365Z,4.86
2019-04-01T02:08:45.792Z,4.58
2019-04-01T02:11:15.292Z,4.35
2019-04-01T02:13:44.920Z,4.58
2019-04-01T02:16:14.543Z,4.66
2019-04-01T02:18:44.277Z,4.55
2019-04-01T02:21:13.697Z,4.45
2019-04-01T02:23:43.120Z,4.75
2019-04-01T02:26:12.571Z,4.17
2019-04-01T02:28:41.996Z,4.14
2019-04-01T02:31:12.698Z,4.44
2019-04-01T02:33:42.193Z,4.19
2019-04-01T02:36:11.803Z,4.08
2019-04-01T02:38:41.234Z,4.28
2019-04-01T02:41:10.827Z,4.41
2019-04-01T02:43:40.312Z,4.31
2019-04-01T02:46:09.929Z,4.39
2019-04-01T02:48:39.454Z,4.21
2019-04-01T02:51:08.942Z,4.14
2019-04-01T02:53:38.509Z,4.49
2019-04-01T02:56:08.082Z,4.27
2019-04-01T02:58:39.459Z,4.32
2019-04-01T03:01:09.075Z,4.27
2019-04-01T03:03:38.495Z,4.11
2019-04-01T03:06:08.029Z,4.06
2019-04-01T03:08:37.582Z,3.97
2019-04-01T03:11:10.391Z,3.86
2019-04-01T03:13:38.307Z,3.74
2019-04-01T03:16:07.818Z,3.79
2019-04-01T03:18:37.321Z,4.19
2019-04-01T03:21:06.917Z,4.23
2019-04-01T03:23:36.326Z,4.01
2019-04-01T03:26:05.888Z,3.91
2019-04-01T03:28:35.404Z,4.01
2019-04-01T03:31:05.054Z,4.02
2019-04-01T03:33:34.526Z,4.15
2019-04-01T03:36:04.147Z,3.99
2019-04-01T03:38:33.581Z,3.88
2019-04-01T03:41:03.022Z,3.79
2019-04-01T03:43:32.667Z,4.03
2019-04-01T03:46:02.153Z,4.28
2019-04-01T03:48:31.686Z,4.29
2019-04-01T03:51:01.122Z,4.23
2019-04-01T03:53:30.705Z,4.34
2019-04-01T03:56:00.266Z,4.18
2019-04-01T03:58:29.881Z,4.16
2019-04-01T04:00:59.468Z,4.16
2019-04-01T04:03:29.001Z,4.00
2019-04-01T04:05:58.633Z,3.96
2019-04-01T04:08:28.138Z,3.99
2019-04-01T04:10:57.699Z,4.28
2019-04-01T04:13:27.262Z,4.24
2019-04-01T04:15:56.997Z,4.05
2019-04-01T04:18:26.561Z,4.15
2019-04-01T04:20:56.059Z,4.13
2019-04-01T04:23:25.651Z,4.04
2019-04-01T04:25:55.221Z,4.04
2019-04-01T04:28:24.723Z,4.19
2019-04-01T04:30:54.298Z,4.16
2019-04-01T04:33:26.665Z,4.11
2019-04-01T04:35:56.165Z,4.26
2019-04-01T04:38:25.654Z,4.38
2019-04-01T04:40:55.254Z,4.67
2019-04-01T04:43:24.876Z,4.52
2019-04-01T04:45:54.644Z,4.56
2019-04-01T04:48:24.181Z,4.65
2019-04-01T04:50:53.645Z,4.86
2019-04-01T04:53:23.149Z,5.13
2019-04-01T04:55:52.714Z,5.19
2019-04-01T04:58:22.311Z,5.13
2019-04-01T05:00:52.638Z,5.27
2019-04-01T05:03:22.164Z,5.46
2019-04-01T05:05:51.655Z,5.71
2019-04-01T05:08:21.165Z,5.80
2019-04-01T05:10:50.647Z,6.11
2019-04-01T05:13:30.190Z,6.39
2019-04-01T05:16:01.529Z,6.43
2019-04-01T05:20:16.348Z,6.66
2019-04-01T05:21:19.530Z,6.90
2019-04-01T05:24:10.704Z,6.93
2019-04-01T05:26:42.836Z,7.28
2019-04-01T05:29:15.208Z,7.41
2019-04-01T05:31:53.777Z,7.68
2019-04-01T05:34:25.459Z,8.00
2019-04-01T05:39:58.981Z,8.45
2019-04-01T05:42:36.422Z,8.76
2019-04-01T05:45:07.687Z,9.07
2019-04-01T05:51:20.759Z,9.42
2019-04-01T05:53:55.102Z,9.65
2019-04-01T05:56:49.034Z,9.80
2019-04-01T05:59:23.061Z,9.76
2019-04-01T06:01:56.412Z,9.78
2019-04-01T06:04:25.693Z,10.01
2019-04-01T06:09:39.487Z,10.38
2019-04-01T06:12:14.937Z,10.30
2019-04-01T06:15:16.435Z,10.46
2019-04-01T06:18:10.172Z,10.44
2019-04-01T06:20:18.447Z,10.47
2019-04-01T06:22:48.262Z,10.78
2019-04-01T06:28:17.940Z,11.09
2019-04-01T06:30:47.800Z,11.26
2019-04-01T06:33:19.083Z,11.41
2019-04-01T06:36:13.307Z,11.41
2019-04-01T06:38:23.114Z,11.66
2019-04-01T06:40:52.798Z,11.65
2019-04-01T06:43:22.581Z,11.95
2019-04-01T06:45:52.342Z,12.00
2019-04-01T06:48:22.025Z,12.15
2019-04-01T06:51:16.291Z,12.66
2019-04-01T06:53:51.314Z,12.94
2019-04-01T06:56:39.253Z,13.37
2019-04-01T06:59:10.594Z,13.57
2019-04-01T07:01:59.313Z,13.86
2019-04-01T07:04:29.153Z,14.08
2019-04-01T07:06:58.887Z,14.24
2019-04-01T07:09:28.540Z,14.38
2019-04-01T07:11:58.319Z,14.47
2019-04-01T07:14:46.330Z,14.79
2019-04-01T07:17:14.445Z,15.00
2019-04-01T07:19:44.125Z,15.06
2019-04-01T07:22:19.720Z,15.16
2019-04-01T07:28:31.214Z,15.45
2019-04-01T07:31:00.862Z,15.32
2019-04-01T07:33:30.539Z,15.34
2019-04-01T07:36:00.285Z,15.34
2019-04-01T07:38:30.155Z,15.54
2019-04-01T07:40:59.998Z,15.71
2019-04-01T07:43:30.404Z,15.94
2019-04-01T07:46:15.857Z,15.93
2019-04-01T07:48:45.841Z,15.93
2019-04-01T07:51:25.649Z,15.92
2019-04-01T07:54:01.988Z,16.03
2019-04-01T07:56:38.306Z,16.07
2019-04-01T07:59:08.016Z,15.89
2019-04-01T08:03:01.790Z,15.90
2019-04-01T08:08:15.083Z,15.94
2019-04-01T08:10:46.476Z,15.96
2019-04-01T08:13:17.993Z,15.91
2019-04-01T08:15:53.194Z,15.83
2019-04-01T08:19:15.798Z,15.88
2019-04-01T08:24:18.173Z,15.94
2019-04-01T08:27:03.124Z,15.91
2019-04-01T08:29:32.789Z,15.89
2019-04-01T08:32:14.027Z,16.02
2019-04-01T08:34:51.509Z,16.23
2019-04-01T09:11:39.655Z,17.29
2019-04-01T09:20:46.560Z,17.30
2019-04-01T09:23:41.969Z,17.47
2019-04-01T09:26:04.106Z,17.64
2019-04-01T09:28:36.876Z,17.76
2019-04-01T09:31:10.299Z,17.81
2019-04-01T09:33:39.978Z,17.80
2019-04-01T09:36:10.261Z,17.80
2019-04-01T09:45:10.864Z,18.09
2019-04-01T09:47:40.453Z,18.11
2019-04-01T09:50:40.762Z,18.07
2019-04-01T09:56:44.757Z,18.23
2019-04-01T09:59:14.569Z,18.50
2019-04-01T10:01:44.256Z,18.73
2019-04-01T10:04:28.658Z,18.80
2019-04-01T10:07:02.947Z,18.46
2019-04-01T10:09:46.164Z,18.21
2019-04-01T10:12:20.433Z,18.16
2019-04-01T10:23:53.342Z,18.98
2019-04-01T10:38:22.445Z,19.02
2019-04-01T10:40:52.082Z,18.93
2019-04-01T10:43:21.833Z,19.11
2019-04-01T10:45:51.425Z,19.21
2019-04-01T10:48:21.077Z,19.51
2019-04-01T10:50:50.650Z,19.65
2019-04-01T10:53:20.367Z,19.80
2019-04-01T10:55:49.972Z,19.83
2019-04-01T10:58:19.590Z,19.64
2019-04-01T11:00:49.101Z,19.46
2019-04-01T11:03:18.677Z,19.46
2019-04-01T11:05:48.241Z,19.75
2019-04-01T11:08:17.920Z,19.81
2019-04-01T11:10:47.491Z,19.73
2019-04-01T11:13:16.999Z,19.82
2019-04-01T11:15:46.578Z,19.79
2019-04-01T11:18:25.398Z,19.84
2019-04-01T11:38:34.296Z,20.13
2019-04-01T11:41:03.547Z,19.83
2019-04-01T11:43:45.738Z,20.23
2019-04-01T11:46:12.835Z,20.27
2019-04-01T11:48:49.089Z,20.43
2019-04-01T11:51:49.594Z,20.31
2019-04-01T11:54:10.223Z,20.26
2019-04-01T11:56:56.710Z,20.13
2019-04-01T12:06:23.460Z,19.81
2019-04-01T12:14:50.293Z,20.06
2019-04-01T12:32:13.187Z,20.77
2019-04-01T12:34:42.844Z,20.67
2019-04-01T12:37:15.762Z,20.60
2019-04-01T12:45:15.777Z,20.35
2019-04-01T12:48:15.803Z,20.46
2019-04-01T12:51:00.956Z,20.32
2019-04-01T12:57:18.816Z,20.38
2019-04-01T13:02:59.665Z,20.28
2019-04-01T13:05:37.593Z,20.28
2019-04-01T13:08:20.977Z,20.46
2019-04-01T13:10:56.401Z,20.36
2019-04-01T13:13:37.809Z,20.54
2019-04-01T13:17:00.889Z,20.38
2019-04-01T13:18:48.078Z,20.56
2019-04-01T13:21:23.286Z,20.49
2019-04-01T13:23:59.775Z,20.37
2019-04-01T13:26:44.311Z,20.48
2019-04-01T13:29:13.970Z,20.40
2019-04-01T13:32:00.406Z,20.33
2019-04-01T13:34:55.527Z,20.44
2019-04-01T13:43:37.253Z,20.08
2019-04-01T13:48:57.836Z,19.95
2019-04-01T13:51:25.819Z,20.03
2019-04-01T13:54:07.955Z,20.12
2019-04-01T13:56:43.075Z,20.03
2019-04-01T13:59:17.486Z,20.24
2019-04-01T14:01:50.311Z,20.23
2019-04-01T14:04:22.300Z,20.15
2019-04-01T14:09:58.441Z,19.91
2019-04-01T14:15:21.525Z,19.95
2019-04-01T14:24:02.363Z,19.70
2019-04-01T14:24:37.592Z,19.91
2019-04-01T14:26:41.094Z,19.48
2019-04-01T14:29:18.954Z,19.59
2019-04-01T14:32:18.020Z,19.45
2019-04-01T14:34:30.862Z,19.49
2019-04-01T14:37:02.127Z,19.41
2019-04-01T14:39:34.763Z,19.41
2019-04-01T14:42:03.058Z,19.28
2019-04-01T14:44:32.640Z,19.31
2019-04-01T14:47:03.679Z,19.05
2019-04-01T14:49:33.577Z,19.22
2019-04-01T14:52:03.056Z,19.05
2019-04-01T14:54:34.094Z,19.11
2019-04-01T14:57:04.211Z,18.99
2019-04-01T14:59:33.650Z,18.88
2019-04-01T15:02:03.817Z,18.84
2019-04-01T15:04:34.808Z,18.85
2019-04-01T15:07:04.606Z,18.69
2019-04-01T15:09:34.120Z,18.62
2019-04-01T15:12:03.872Z,18.53
2019-04-01T15:14:33.445Z,18.43
2019-04-01T15:17:02.966Z,18.47
2019-04-01T15:19:32.663Z,18.42
2019-04-01T15:22:02.285Z,18.24
2019-04-01T15:24:31.744Z,18.30
2019-04-01T15:27:01.176Z,18.19
2019-04-01T15:29:30.749Z,18.04
2019-04-01T15:32:00.361Z,18.00
2019-04-01T15:34:29.866Z,17.90
2019-04-01T15:36:59.368Z,17.81
2019-04-01T15:39:28.843Z,17.70
2019-04-01T15:42:04.328Z,17.55
2019-04-01T15:44:51.159Z,17.58
2019-04-01T15:47:23.201Z,17.49
2019-04-01T15:49:52.759Z,17.37
2019-04-01T15:52:22.830Z,17.35
2019-04-01T15:54:52.464Z,17.29
2019-04-01T15:57:22.110Z,17.10
2019-04-01T15:59:51.773Z,17.11
2019-04-01T16:02:21.408Z,17.09
2019-04-01T16:04:51.162Z,16.93
2019-04-01T16:07:22.591Z,16.84
2019-04-01T16:09:52.281Z,16.74
2019-04-01T16:12:21.669Z,16.58
2019-04-01T16:14:51.093Z,16.52
2019-04-01T16:17:21.955Z,16.48
2019-04-01T16:19:52.577Z,16.27
2019-04-01T16:22:22.346Z,16.27
2019-04-01T16:24:51.846Z,16.15
2019-04-01T16:27:21.443Z,16.13
2019-04-01T16:29:50.991Z,15.99
2019-04-01T16:32:20.419Z,15.95
2019-04-01T16:34:49.921Z,15.96
2019-04-01T16:37:19.362Z,15.85
2019-04-01T16:39:49.200Z,15.73
2019-04-01T16:42:19.497Z,15.72
2019-04-01T16:44:49.314Z,15.54
2019-04-01T16:47:18.856Z,15.36
2019-04-01T16:49:48.388Z,15.32
2019-04-01T16:52:18.058Z,15.30
2019-04-01T16:54:58.568Z,15.16
2019-04-01T16:57:28.205Z,15.23
2019-04-01T16:59:57.882Z,15.25
2019-04-01T17:02:27.454Z,15.14
2019-04-01T17:05:00.231Z,15.00
2019-04-01T17:07:28.246Z,14.79
2019-04-01T17:09:58.285Z,14.66
2019-04-01T17:12:28.459Z,14.65
2019-04-01T17:14:58.307Z,14.47
2019-04-01T17:17:27.873Z,14.38
2019-04-01T17:19:57.359Z,14.12
2019-04-01T17:22:27.046Z,14.02
2019-04-01T17:24:57.429Z,14.01
2019-04-01T17:27:27.428Z,14.03
2019-04-01T17:29:56.995Z,13.72
2019-04-01T17:32:26.736Z,13.42
2019-04-01T17:34:56.383Z,13.24
2019-04-01T17:37:25.891Z,13.04
2019-04-01T17:39:55.569Z,13.10
2019-04-01T17:42:26.903Z,12.86
2019-04-01T17:45:02.498Z,12.92
2019-04-01T17:47:32.559Z,12.55
2019-04-01T17:50:02.129Z,12.30
2019-04-01T17:52:31.893Z,12.39
2019-04-01T17:55:01.393Z,12.24
2019-04-01T17:57:31.193Z,12.45
2019-04-01T18:00:00.912Z,12.35
2019-04-01T18:02:31.280Z,12.29
2019-04-01T18:05:02.718Z,12.26
2019-04-01T18:07:32.402Z,12.02
2019-04-01T18:10:02.006Z,12.20
2019-04-01T18:12:32.041Z,11.91
2019-04-01T18:15:01.634Z,11.91
2019-04-01T18:17:31.234Z,11.90
2019-04-01T18:20:00.889Z,11.66
2019-04-01T18:22:30.817Z,11.58
2019-04-01T18:25:00.321Z,11.80
2019-04-01T18:27:30.132Z,11.71
2019-04-01T18:29:59.679Z,11.42
2019-04-01T18:32:29.178Z,11.49
2019-04-01T18:34:58.717Z,11.41
2019-04-01T18:37:28.254Z,11.24
2019-04-01T18:39:57.760Z,11.40
2019-04-01T18:42:27.320Z,10.93
2019-04-01T18:44:56.893Z,11.26
2019-04-01T18:47:26.569Z,11.19
2019-04-01T18:49:56.070Z,11.15
2019-04-01T18:52:25.758Z,11.14
2019-04-01T18:54:55.333Z,11.16
2019-04-01T18:57:24.964Z,10.94
2019-04-01T18:59:54.387Z,11.11
2019-04-01T19:02:23.961Z,11.03
2019-04-01T19:04:53.583Z,10.68
2019-04-01T19:07:23.164Z,10.70
2019-04-01T19:10:05.604Z,10.63
2019-04-01T19:12:23.913Z,10.75
2019-04-01T19:14:53.487Z,10.73
2019-04-01T19:17:23.113Z,10.65
2019-04-01T19:19:52.613Z,10.92
2019-04-01T19:22:22.053Z,10.79
2019-04-01T19:24:51.563Z,11.12
2019-04-01T19:27:22.115Z,11.26
2019-04-01T19:29:51.906Z,11.10
2019-04-01T19:32:21.544Z,11.27
2019-04-01T19:34:51.116Z,11.29
2019-04-01T19:37:20.619Z,11.26
2019-04-01T19:39:50.130Z,11.38
2019-04-01T19:42:19.906Z,11.35
2019-04-01T19:44:49.590Z,11.41
2019-04-01T19:47:19.366Z,11.63
2019-04-01T19:49:48.908Z,11.65
2019-04-01T19:52:18.596Z,11.74
2019-04-01T19:54:48.017Z,11.70
2019-04-01T19:57:17.606Z,11.57
2019-04-01T19:59:47.332Z,11.70
2019-04-01T20:02:16.930Z,11.55
2019-04-01T20:04:46.729Z,11.57
2019-04-01T20:07:16.515Z,11.60
2019-04-01T20:09:46.383Z,11.61
2019-04-01T20:12:16.037Z,11.54
2019-04-01T20:14:45.531Z,11.49
2019-04-01T20:17:15.107Z,11.58
2019-04-01T20:19:46.513Z,11.55
2019-04-01T20:22:17.350Z,11.58
2019-04-01T20:24:47.918Z,11.55
2019-04-01T20:27:20.631Z,11.60
2019-04-01T20:29:51.592Z,11.69
2019-04-01T20:32:21.303Z,11.66
2019-04-01T20:34:56.762Z,11.65
2019-04-01T20:37:22.134Z,11.75
2019-04-01T20:39:51.628Z,11.80
2019-04-01T20:42:21.420Z,11.81
2019-04-01T20:44:50.998Z,11.88
2019-04-01T20:47:22.372Z,11.96
2019-04-01T20:49:51.868Z,12.02
2019-04-01T20:52:21.799Z,11.82
2019-04-01T20:54:51.467Z,12.03
2019-04-01T20:57:21.961Z,12.06
2019-04-01T20:59:51.657Z,12.08
2019-04-01T21:02:21.458Z,12.20
2019-04-01T21:04:50.903Z,12.15
2019-04-01T21:07:20.467Z,12.23
2019-04-01T21:09:50.047Z,12.13
2019-04-01T21:12:19.764Z,12.13
2019-04-01T21:14:49.305Z,12.30
2019-04-01T21:17:18.798Z,12.42
2019-04-01T21:19:48.373Z,12.30
2019-04-01T21:22:17.942Z,12.12
2019-04-01T21:24:47.513Z,11.87
2019-04-01T21:27:17.087Z,11.76
2019-04-01T21:29:46.698Z,11.62
2019-04-01T21:32:17.083Z,11.48
2019-04-01T21:34:46.783Z,11.52
2019-04-01T21:37:16.279Z,11.40
2019-04-01T21:39:45.916Z,11.25
2019-04-01T21:42:15.487Z,11.19
2019-04-01T21:44:46.934Z,11.11
2019-04-01T21:47:16.590Z,11.11
2019-04-01T21:49:47.188Z,11.29
2019-04-01T21:52:16.695Z,11.47
2019-04-01T21:54:46.116Z,11.49
2019-04-01T21:57:15.617Z,11.49
2019-04-01T21:59:46.007Z,11.37
2019-04-01T22:02:15.715Z,11.50
2019-04-01T22:04:45.278Z,11.61
2019-04-01T22:07:14.764Z,11.85
2019-04-01T22:09:44.363Z,11.95
2019-04-01T22:12:14.061Z,12.08
2019-04-01T22:14:43.770Z,11.99
2019-04-01T22:17:13.384Z,12.04
2019-04-01T22:19:42.807Z,12.02
2019-04-01T22:22:12.492Z,11.94
2019-04-01T22:24:41.899Z,12.02
2019-04-01T22:27:11.369Z,12.12
2019-04-01T22:29:40.857Z,12.11
2019-04-01T22:32:10.453Z,12.01
2019-04-01T22:34:40.022Z,12.05
2019-04-01T22:37:09.524Z,12.09
2019-04-01T22:39:38.957Z,12.11
2019-04-01T22:42:08.768Z,12.05
2019-04-01T22:44:38.184Z,11.93
2019-04-01T22:47:07.756Z,11.84
2019-04-01T22:49:37.346Z,11.47
2019-04-01T22:52:06.932Z,11.42
2019-04-01T22:54:37.579Z,11.43
2019-04-01T22:57:07.069Z,11.31
2019-04-01T22:59:36.486Z,10.91
2019-04-01T23:02:06.049Z,10.80
2019-04-01T23:04:37.066Z,10.68
2019-04-01T23:07:06.775Z,10.35
2019-04-01T23:09:36.332Z,10.19
2019-04-01T23:12:05.774Z,10.20
2019-04-01T23:14:35.267Z,10.11
2019-04-01T23:17:04.870Z,10.24
2019-04-01T23:19:34.918Z,10.19
2019-04-01T23:22:05.800Z,9.74
2019-04-01T23:24:35.230Z,9.51
2019-04-01T23:27:04.729Z,9.46
2019-04-01T23:29:34.266Z,9.38
2019-04-01T23:32:03.755Z,9.14
2019-04-01T23:34:33.275Z,9.32
2019-04-01T23:37:02.760Z,9.10
2019-04-01T23:39:32.255Z,8.99
2019-04-01T23:42:01.859Z,8.90
2019-04-01T23:44:31.361Z,8.70
2019-04-01T23:47:00.854Z,8.86
2019-04-01T23:49:30.364Z,8.43
2019-04-01T23:51:59.922Z,8.30
2019-04-01T23:54:31.017Z,8.29
2019-04-01T23:57:00.788Z,8.12
2019-04-01T23:59:30.277Z,8.07
